sensor_id;sensor_type;location;lat;lon;timestamp;P1;durP1;ratioP1;P2;durP2;ratioP2
25109;SDS011;13507;49.030;11.940;2023-03-07T00:01:01;1.70;;;1.60;;
25109;SDS011;13507;49.030;11.940;2023-03-07T00:03:28;2.08;;;1.40;;
25109;SDS011;13507;49.030;11.940;2023-03-07T00:06:14;1.38;;;1.25;;
25109;SDS011;13507;49.030;11.940;2023-03-07T00:08:41;1.50;;;1.40;;
25109;SDS011;13507;49.030;11.940;2023-03-07T00:11:10;1.60;;;1.50;;
25109;SDS011;13507;49.030;11.940;2023-03-07T00:13:38;1.30;;;1.20;;
25109;SDS011;13507;49.030;11.940;2023-03-07T00:16:06;1.60;;;1.50;;
25109;SDS011;13507;49.030;11.940;2023-03-07T00:18:36;1.60;;;1.50;;
25109;SDS011;13507;49.030;11.940;2023-03-07T00:21:04;1.00;;;1.00;;
25109;SDS011;13507;49.030;11.940;2023-03-07T00:23:33;1.40;;;1.30;;
25109;SDS011;13507;49.030;11.940;2023-03-07T00:26:02;1.30;;;1.20;;
25109;SDS011;13507;49.030;11.940;2023-03-07T00:28:30;1.40;;;1.30;;
25109;SDS011;13507;49.030;11.940;2023-03-07T00:30:58;1.20;;;1.10;;
25109;SDS011;13507;49.030;11.940;2023-03-07T00:33:27;1.33;;;1.23;;
25109;SDS011;13507;49.030;11.940;2023-03-07T00:35:55;1.25;;;1.20;;
25109;SDS011;13507;49.030;11.940;2023-03-07T00:38:24;1.20;;;1.10;;
25109;SDS011;13507;49.030;11.940;2023-03-07T00:40:55;1.20;;;1.10;;
25109;SDS011;13507;49.030;11.940;2023-03-07T00:43:27;1.10;;;1.00;;
25109;SDS011;13507;49.030;11.940;2023-03-07T00:45:54;1.42;;;1.33;;
25109;SDS011;13507;49.030;11.940;2023-03-07T00:48:22;1.23;;;1.13;;
25109;SDS011;13507;49.030;11.940;2023-03-07T00:50:50;1.30;;;1.20;;
25109;SDS011;13507;49.030;11.940;2023-03-07T00:53:17;0.90;;;0.90;;
25109;SDS011;13507;49.030;11.940;2023-03-07T00:55:54;1.75;;;1.17;;
25109;SDS011;13507;49.030;11.940;2023-03-07T00:58:21;1.10;;;1.00;;
25109;SDS011;13507;49.030;11.940;2023-03-07T01:00:49;1.40;;;0.98;;
25109;SDS011;13507;49.030;11.940;2023-03-07T01:03:20;1.17;;;1.08;;
25109;SDS011;13507;49.030;11.940;2023-03-07T01:05:48;1.25;;;1.15;;
25109;SDS011;13507;49.030;11.940;2023-03-07T01:08:16;1.15;;;1.05;;
25109;SDS011;13507;49.030;11.940;2023-03-07T01:10:43;1.10;;;0.98;;
25109;SDS011;13507;49.030;11.940;2023-03-07T01:13:11;1.20;;;1.10;;
25109;SDS011;13507;49.030;11.940;2023-03-07T01:15:38;1.05;;;1.00;;
25109;SDS011;13507;49.030;11.940;2023-03-07T01:18:06;1.25;;;1.00;;
25109;SDS011;13507;49.030;11.940;2023-03-07T01:20:35;0.90;;;0.90;;
25109;SDS011;13507;49.030;11.940;2023-03-07T01:23:04;1.13;;;1.02;;
25109;SDS011;13507;49.030;11.940;2023-03-07T01:25:33;1.10;;;1.00;;
25109;SDS011;13507;49.030;11.940;2023-03-07T01:28:04;1.10;;;1.10;;
25109;SDS011;13507;49.030;11.940;2023-03-07T01:30:31;0.95;;;0.90;;
25109;SDS011;13507;49.030;11.940;2023-03-07T01:32:59;1.10;;;1.00;;
25109;SDS011;13507;49.030;11.940;2023-03-07T01:35:29;0.90;;;0.90;;
25109;SDS011;13507;49.030;11.940;2023-03-07T01:38:05;0.85;;;0.85;;
25109;SDS011;13507;49.030;11.940;2023-03-07T01:40:32;0.90;;;0.90;;
25109;SDS011;13507;49.030;11.940;2023-03-07T01:48:12;0.88;;;0.88;;
25109;SDS011;13507;49.030;11.940;2023-03-07T01:50:39;0.80;;;0.80;;
25109;SDS011;13507;49.030;11.940;2023-03-07T01:53:07;1.10;;;1.00;;
25109;SDS011;13507;49.030;11.940;2023-03-07T01:55:35;1.50;;;1.10;;
25109;SDS011;13507;49.030;11.940;2023-03-07T01:58:07;0.95;;;0.85;;
25109;SDS011;13507;49.030;11.940;2023-03-07T02:00:38;1.00;;;0.90;;
25109;SDS011;13507;49.030;11.940;2023-03-07T02:05:36;0.90;;;0.90;;
25109;SDS011;13507;49.030;11.940;2023-03-07T02:08:15;0.98;;;0.95;;
25109;SDS011;13507;49.030;11.940;2023-03-07T02:10:44;1.60;;;0.90;;
25109;SDS011;13507;49.030;11.940;2023-03-07T02:13:11;0.80;;;0.80;;
25109;SDS011;13507;49.030;11.940;2023-03-07T02:15:38;0.90;;;0.90;;
25109;SDS011;13507;49.030;11.940;2023-03-07T02:18:05;1.15;;;1.05;;
25109;SDS011;13507;49.030;11.940;2023-03-07T02:23:38;1.03;;;1.00;;
25109;SDS011;13507;49.030;11.940;2023-03-07T02:26:12;1.00;;;0.90;;
25109;SDS011;13507;49.030;11.940;2023-03-07T02:28:46;0.73;;;0.73;;
25109;SDS011;13507;49.030;11.940;2023-03-07T02:31:14;0.82;;;0.82;;
25109;SDS011;13507;49.030;11.940;2023-03-07T02:33:41;1.08;;;1.00;;
25109;SDS011;13507;49.030;11.940;2023-03-07T02:36:09;0.93;;;0.85;;
25109;SDS011;13507;49.030;11.940;2023-03-07T02:38:40;0.70;;;0.70;;
25109;SDS011;13507;49.030;11.940;2023-03-07T02:41:10;0.88;;;0.80;;
25109;SDS011;13507;49.030;11.940;2023-03-07T02:43:38;0.85;;;0.85;;
25109;SDS011;13507;49.030;11.940;2023-03-07T02:46:05;0.90;;;0.90;;
25109;SDS011;13507;49.030;11.940;2023-03-07T02:48:32;1.00;;;0.85;;
25109;SDS011;13507;49.030;11.940;2023-03-07T02:50:59;0.90;;;0.90;;
25109;SDS011;13507;49.030;11.940;2023-03-07T02:53:26;1.13;;;1.10;;
25109;SDS011;13507;49.030;11.940;2023-03-07T02:55:53;0.90;;;0.85;;
25109;SDS011;13507;49.030;11.940;2023-03-07T02:58:21;0.80;;;0.80;;
25109;SDS011;13507;49.030;11.940;2023-03-07T03:00:48;0.88;;;0.88;;
25109;SDS011;13507;49.030;11.940;2023-03-07T03:03:15;1.10;;;0.80;;
25109;SDS011;13507;49.030;11.940;2023-03-07T03:05:42;0.90;;;0.90;;
25109;SDS011;13507;49.030;11.940;2023-03-07T03:08:09;1.88;;;0.80;;
25109;SDS011;13507;49.030;11.940;2023-03-07T03:10:37;1.25;;;0.90;;
25109;SDS011;13507;49.030;11.940;2023-03-07T03:13:04;1.02;;;0.93;;
25109;SDS011;13507;49.030;11.940;2023-03-07T03:15:33;0.90;;;0.80;;
25109;SDS011;13507;49.030;11.940;2023-03-07T03:18:00;0.80;;;0.80;;
25109;SDS011;13507;49.030;11.940;2023-03-07T03:20:27;0.70;;;0.70;;
25109;SDS011;13507;49.030;11.940;2023-03-07T03:22:54;0.68;;;0.68;;
25109;SDS011;13507;49.030;11.940;2023-03-07T03:25:21;0.95;;;0.80;;
25109;SDS011;13507;49.030;11.940;2023-03-07T03:27:48;1.02;;;1.00;;
25109;SDS011;13507;49.030;11.940;2023-03-07T03:30:16;1.02;;;0.93;;
25109;SDS011;13507;49.030;11.940;2023-03-07T03:32:43;0.90;;;0.85;;
25109;SDS011;13507;49.030;11.940;2023-03-07T03:35:10;0.90;;;0.90;;
25109;SDS011;13507;49.030;11.940;2023-03-07T03:37:37;0.82;;;0.82;;
25109;SDS011;13507;49.030;11.940;2023-03-07T03:40:05;0.80;;;0.80;;
25109;SDS011;13507;49.030;11.940;2023-03-07T03:42:33;1.15;;;0.98;;
25109;SDS011;13507;49.030;11.940;2023-03-07T03:45:00;1.67;;;0.70;;
25109;SDS011;13507;49.030;11.940;2023-03-07T03:47:27;0.98;;;0.90;;
25109;SDS011;13507;49.030;11.940;2023-03-07T03:49:55;0.85;;;0.82;;
25109;SDS011;13507;49.030;11.940;2023-03-07T03:52:22;0.70;;;0.70;;
25109;SDS011;13507;49.030;11.940;2023-03-07T03:54:49;0.77;;;0.77;;
25109;SDS011;13507;49.030;11.940;2023-03-07T03:57:16;0.80;;;0.80;;
25109;SDS011;13507;49.030;11.940;2023-03-07T03:59:43;0.80;;;0.80;;
25109;SDS011;13507;49.030;11.940;2023-03-07T04:02:11;0.90;;;0.90;;
25109;SDS011;13507;49.030;11.940;2023-03-07T04:04:38;0.70;;;0.70;;
25109;SDS011;13507;49.030;11.940;2023-03-07T04:07:05;1.17;;;0.80;;
25109;SDS011;13507;49.030;11.940;2023-03-07T04:09:32;0.90;;;0.80;;
25109;SDS011;13507;49.030;11.940;2023-03-07T04:12:00;0.90;;;0.90;;
25109;SDS011;13507;49.030;11.940;2023-03-07T04:14:27;0.75;;;0.75;;
25109;SDS011;13507;49.030;11.940;2023-03-07T04:16:54;0.80;;;0.73;;
25109;SDS011;13507;49.030;11.940;2023-03-07T04:19:21;0.98;;;0.93;;
25109;SDS011;13507;49.030;11.940;2023-03-07T04:21:49;0.73;;;0.73;;
25109;SDS011;13507;49.030;11.940;2023-03-07T04:24:16;0.80;;;0.73;;
25109;SDS011;13507;49.030;11.940;2023-03-07T04:26:43;0.80;;;0.80;;
25109;SDS011;13507;49.030;11.940;2023-03-07T04:29:10;1.00;;;1.00;;
25109;SDS011;13507;49.030;11.940;2023-03-07T04:31:37;0.75;;;0.75;;
25109;SDS011;13507;49.030;11.940;2023-03-07T04:34:04;0.70;;;0.70;;
25109;SDS011;13507;49.030;11.940;2023-03-07T04:36:31;0.70;;;0.70;;
25109;SDS011;13507;49.030;11.940;2023-03-07T04:38:59;0.82;;;0.82;;
25109;SDS011;13507;49.030;11.940;2023-03-07T04:41:26;0.80;;;0.80;;
25109;SDS011;13507;49.030;11.940;2023-03-07T04:43:53;0.80;;;0.80;;
25109;SDS011;13507;49.030;11.940;2023-03-07T04:46:20;0.80;;;0.80;;
25109;SDS011;13507;49.030;11.940;2023-03-07T04:48:48;0.63;;;0.63;;
25109;SDS011;13507;49.030;11.940;2023-03-07T04:51:15;0.70;;;0.70;;
25109;SDS011;13507;49.030;11.940;2023-03-07T04:53:42;3.65;;;0.70;;
25109;SDS011;13507;49.030;11.940;2023-03-07T04:56:09;0.65;;;0.65;;
25109;SDS011;13507;49.030;11.940;2023-03-07T04:58:38;1.20;;;0.80;;
25109;SDS011;13507;49.030;11.940;2023-03-07T05:01:05;0.73;;;0.73;;
25109;SDS011;13507;49.030;11.940;2023-03-07T05:03:33;0.80;;;0.80;;
25109;SDS011;13507;49.030;11.940;2023-03-07T05:06:02;0.77;;;0.77;;
25109;SDS011;13507;49.030;11.940;2023-03-07T05:08:30;0.57;;;0.57;;
25109;SDS011;13507;49.030;11.940;2023-03-07T05:10:58;0.70;;;0.70;;
25109;SDS011;13507;49.030;11.940;2023-03-07T05:13:25;0.80;;;0.80;;
25109;SDS011;13507;49.030;11.940;2023-03-07T05:15:53;1.30;;;1.20;;
25109;SDS011;13507;49.030;11.940;2023-03-07T05:18:21;1.90;;;1.80;;
25109;SDS011;13507;49.030;11.940;2023-03-07T05:20:49;2.92;;;2.72;;
25109;SDS011;13507;49.030;11.940;2023-03-07T05:23:17;2.45;;;2.25;;
25109;SDS011;13507;49.030;11.940;2023-03-07T05:25:44;2.10;;;2.00;;
25109;SDS011;13507;49.030;11.940;2023-03-07T05:28:11;1.95;;;1.85;;
25109;SDS011;13507;49.030;11.940;2023-03-07T05:30:39;1.27;;;1.20;;
25109;SDS011;13507;49.030;11.940;2023-03-07T05:33:06;1.30;;;1.20;;
25109;SDS011;13507;49.030;11.940;2023-03-07T05:35:33;1.70;;;1.58;;
25109;SDS011;13507;49.030;11.940;2023-03-07T05:38:00;1.40;;;1.30;;
25109;SDS011;13507;49.030;11.940;2023-03-07T05:40:27;4.90;;;4.53;;
25109;SDS011;13507;49.030;11.940;2023-03-07T05:42:55;6.45;;;6.03;;
25109;SDS011;13507;49.030;11.940;2023-03-07T05:45:22;10.32;;;9.27;;
25109;SDS011;13507;49.030;11.940;2023-03-07T05:47:49;9.40;;;8.50;;
25109;SDS011;13507;49.030;11.940;2023-03-07T05:50:16;7.72;;;7.03;;
25109;SDS011;13507;49.030;11.940;2023-03-07T05:52:43;6.50;;;6.00;;
25109;SDS011;13507;49.030;11.940;2023-03-07T05:55:10;4.75;;;4.40;;
25109;SDS011;13507;49.030;11.940;2023-03-07T05:57:38;3.63;;;3.42;;
25109;SDS011;13507;49.030;11.940;2023-03-07T06:00:05;3.47;;;3.28;;
25109;SDS011;13507;49.030;11.940;2023-03-07T06:02:33;3.05;;;2.85;;
25109;SDS011;13507;49.030;11.940;2023-03-07T06:05:00;3.17;;;2.97;;
25109;SDS011;13507;49.030;11.940;2023-03-07T06:07:27;3.17;;;2.97;;
25109;SDS011;13507;49.030;11.940;2023-03-07T06:09:54;3.72;;;3.42;;
25109;SDS011;13507;49.030;11.940;2023-03-07T06:12:21;3.10;;;2.90;;
25109;SDS011;13507;49.030;11.940;2023-03-07T06:14:48;2.70;;;2.50;;
25109;SDS011;13507;49.030;11.940;2023-03-07T06:17:15;3.50;;;2.90;;
25109;SDS011;13507;49.030;11.940;2023-03-07T06:19:42;5.93;;;3.50;;
25109;SDS011;13507;49.030;11.940;2023-03-07T06:22:09;5.10;;;3.47;;
25109;SDS011;13507;49.030;11.940;2023-03-07T06:24:37;4.47;;;3.50;;
25109;SDS011;13507;49.030;11.940;2023-03-07T06:27:04;7.80;;;3.90;;
25109;SDS011;13507;49.030;11.940;2023-03-07T06:29:31;7.72;;;4.07;;
25109;SDS011;13507;49.030;11.940;2023-03-07T06:31:58;6.22;;;4.22;;
25109;SDS011;13507;49.030;11.940;2023-03-07T06:34:25;6.60;;;4.07;;
25109;SDS011;13507;49.030;11.940;2023-03-07T06:36:53;7.40;;;4.30;;
25109;SDS011;13507;49.030;11.940;2023-03-07T06:39:20;10.50;;;4.55;;
25109;SDS011;13507;49.030;11.940;2023-03-07T06:41:47;9.27;;;4.65;;
25109;SDS011;13507;49.030;11.940;2023-03-07T06:44:17;10.25;;;5.63;;
25109;SDS011;13507;49.030;11.940;2023-03-07T06:46:44;10.65;;;5.30;;
25109;SDS011;13507;49.030;11.940;2023-03-07T06:49:11;13.23;;;5.32;;
25109;SDS011;13507;49.030;11.940;2023-03-07T06:51:39;8.82;;;5.22;;
25109;SDS011;13507;49.030;11.940;2023-03-07T06:54:06;11.45;;;5.10;;
25109;SDS011;13507;49.030;11.940;2023-03-07T06:56:33;11.45;;;5.20;;
25109;SDS011;13507;49.030;11.940;2023-03-07T06:59:00;11.45;;;5.47;;
25109;SDS011;13507;49.030;11.940;2023-03-07T07:01:28;10.05;;;4.68;;
25109;SDS011;13507;49.030;11.940;2023-03-07T07:03:55;11.32;;;4.88;;
25109;SDS011;13507;49.030;11.940;2023-03-07T07:06:23;9.10;;;5.03;;
25109;SDS011;13507;49.030;11.940;2023-03-07T07:08:52;9.18;;;4.82;;
25109;SDS011;13507;49.030;11.940;2023-03-07T07:11:21;8.02;;;4.57;;
25109;SDS011;13507;49.030;11.940;2023-03-07T07:13:49;9.30;;;4.90;;
25109;SDS011;13507;49.030;11.940;2023-03-07T07:16:16;8.40;;;5.15;;
25109;SDS011;13507;49.030;11.940;2023-03-07T07:18:44;10.55;;;4.72;;
25109;SDS011;13507;49.030;11.940;2023-03-07T07:21:11;10.82;;;5.13;;
25109;SDS011;13507;49.030;11.940;2023-03-07T07:23:38;10.30;;;4.97;;
25109;SDS011;13507;49.030;11.940;2023-03-07T07:26:06;10.60;;;4.97;;
25109;SDS011;13507;49.030;11.940;2023-03-07T07:28:33;9.77;;;4.68;;
25109;SDS011;13507;49.030;11.940;2023-03-07T07:31:00;8.77;;;4.70;;
25109;SDS011;13507;49.030;11.940;2023-03-07T07:33:27;10.20;;;4.53;;
25109;SDS011;13507;49.030;11.940;2023-03-07T07:35:54;9.38;;;4.70;;
25109;SDS011;13507;49.030;11.940;2023-03-07T07:38:21;8.18;;;4.75;;
25109;SDS011;13507;49.030;11.940;2023-03-07T07:40:49;8.23;;;4.68;;
25109;SDS011;13507;49.030;11.940;2023-03-07T07:43:16;9.57;;;5.35;;
25109;SDS011;13507;49.030;11.940;2023-03-07T07:45:43;6.93;;;4.43;;
25109;SDS011;13507;49.030;11.940;2023-03-07T07:48:10;7.43;;;4.15;;
25109;SDS011;13507;49.030;11.940;2023-03-07T07:50:37;8.90;;;4.90;;
25109;SDS011;13507;49.030;11.940;2023-03-07T07:53:04;8.27;;;4.38;;
25109;SDS011;13507;49.030;11.940;2023-03-07T07:55:32;9.57;;;4.95;;
25109;SDS011;13507;49.030;11.940;2023-03-07T07:57:59;8.18;;;4.68;;
25109;SDS011;13507;49.030;11.940;2023-03-07T08:00:26;8.43;;;4.40;;
25109;SDS011;13507;49.030;11.940;2023-03-07T08:02:53;6.72;;;3.83;;
25109;SDS011;13507;49.030;11.940;2023-03-07T08:05:21;8.85;;;4.18;;
25109;SDS011;13507;49.030;11.940;2023-03-07T08:07:48;8.82;;;4.18;;
25109;SDS011;13507;49.030;11.940;2023-03-07T08:10:16;6.60;;;4.00;;
25109;SDS011;13507;49.030;11.940;2023-03-07T08:12:44;8.70;;;4.00;;
25109;SDS011;13507;49.030;11.940;2023-03-07T08:15:14;7.75;;;4.22;;
25109;SDS011;13507;49.030;11.940;2023-03-07T08:17:41;6.93;;;3.70;;
25109;SDS011;13507;49.030;11.940;2023-03-07T08:20:09;6.85;;;3.30;;
25109;SDS011;13507;49.030;11.940;2023-03-07T08:22:37;7.25;;;3.38;;
25109;SDS011;13507;49.030;11.940;2023-03-07T08:25:05;7.15;;;3.30;;
25109;SDS011;13507;49.030;11.940;2023-03-07T08:27:33;5.35;;;3.38;;
25109;SDS011;13507;49.030;11.940;2023-03-07T08:30:01;5.07;;;3.42;;
25109;SDS011;13507;49.030;11.940;2023-03-07T08:32:28;5.93;;;3.13;;
25109;SDS011;13507;49.030;11.940;2023-03-07T08:34:55;5.25;;;3.58;;
25109;SDS011;13507;49.030;11.940;2023-03-07T08:37:22;5.78;;;3.47;;
25109;SDS011;13507;49.030;11.940;2023-03-07T08:39:49;5.07;;;3.25;;
25109;SDS011;13507;49.030;11.940;2023-03-07T08:42:16;5.80;;;3.22;;
25109;SDS011;13507;49.030;11.940;2023-03-07T08:44:43;5.13;;;3.30;;
25109;SDS011;13507;49.030;11.940;2023-03-07T08:47:11;6.15;;;3.45;;
25109;SDS011;13507;49.030;11.940;2023-03-07T08:49:38;5.35;;;3.30;;
25109;SDS011;13507;49.030;11.940;2023-03-07T08:52:06;5.47;;;3.30;;
25109;SDS011;13507;49.030;11.940;2023-03-07T08:54:33;4.90;;;3.28;;
25109;SDS011;13507;49.030;11.940;2023-03-07T08:57:00;5.63;;;3.42;;
25109;SDS011;13507;49.030;11.940;2023-03-07T08:59:27;7.45;;;3.45;;
25109;SDS011;13507;49.030;11.940;2023-03-07T09:01:55;3.63;;;2.92;;
25109;SDS011;13507;49.030;11.940;2023-03-07T09:04:22;4.95;;;2.95;;
25109;SDS011;13507;49.030;11.940;2023-03-07T09:06:50;4.32;;;2.80;;
25109;SDS011;13507;49.030;11.940;2023-03-07T09:09:17;5.13;;;3.05;;
25109;SDS011;13507;49.030;11.940;2023-03-07T09:11:44;5.03;;;2.90;;
25109;SDS011;13507;49.030;11.940;2023-03-07T09:14:11;6.38;;;3.58;;
25109;SDS011;13507;49.030;11.940;2023-03-07T09:16:38;4.75;;;3.13;;
25109;SDS011;13507;49.030;11.940;2023-03-07T09:19:06;5.75;;;3.10;;
25109;SDS011;13507;49.030;11.940;2023-03-07T09:21:33;5.97;;;3.10;;
25109;SDS011;13507;49.030;11.940;2023-03-07T09:24:00;3.53;;;2.67;;
25109;SDS011;13507;49.030;11.940;2023-03-07T09:26:27;6.03;;;3.65;;
25109;SDS011;13507;49.030;11.940;2023-03-07T09:28:54;4.05;;;3.30;;
25109;SDS011;13507;49.030;11.940;2023-03-07T09:31:21;4.65;;;3.30;;
25109;SDS011;13507;49.030;11.940;2023-03-07T09:33:49;5.70;;;3.17;;
25109;SDS011;13507;49.030;11.940;2023-03-07T09:36:17;3.97;;;2.75;;
25109;SDS011;13507;49.030;11.940;2023-03-07T09:38:45;5.07;;;2.92;;
25109;SDS011;13507;49.030;11.940;2023-03-07T09:46:31;4.13;;;2.85;;
25109;SDS011;13507;49.030;11.940;2023-03-07T09:51:45;3.22;;;2.60;;
25109;SDS011;13507;49.030;11.940;2023-03-07T09:54:19;4.30;;;2.88;;
25109;SDS011;13507;49.030;11.940;2023-03-07T09:56:55;3.80;;;2.53;;
25109;SDS011;13507;49.030;11.940;2023-03-07T10:07:23;5.85;;;3.13;;
25109;SDS011;13507;49.030;11.940;2023-03-07T10:09:55;3.70;;;2.60;;
25109;SDS011;13507;49.030;11.940;2023-03-07T10:12:41;3.50;;;2.60;;
25109;SDS011;13507;49.030;11.940;2023-03-07T10:18:06;3.45;;;2.45;;
25109;SDS011;13507;49.030;11.940;2023-03-07T10:26:28;3.00;;;2.20;;
25109;SDS011;13507;49.030;11.940;2023-03-07T10:29:01;3.50;;;2.17;;
25109;SDS011;13507;49.030;11.940;2023-03-07T10:31:37;2.92;;;2.10;;
25109;SDS011;13507;49.030;11.940;2023-03-07T10:34:12;2.83;;;2.00;;
25109;SDS011;13507;49.030;11.940;2023-03-07T10:36:54;2.67;;;2.35;;
25109;SDS011;13507;49.030;11.940;2023-03-07T10:42:14;3.58;;;2.25;;
25109;SDS011;13507;49.030;11.940;2023-03-07T10:44:43;4.07;;;2.70;;
25109;SDS011;13507;49.030;11.940;2023-03-07T10:47:20;4.78;;;3.20;;
25109;SDS011;13507;49.030;11.940;2023-03-07T10:49:50;3.45;;;2.58;;
25109;SDS011;13507;49.030;11.940;2023-03-07T11:00:38;4.50;;;3.17;;
25109;SDS011;13507;49.030;11.940;2023-03-07T11:03:18;9.52;;;6.63;;
25109;SDS011;13507;49.030;11.940;2023-03-07T11:05:49;11.38;;;10.23;;
25109;SDS011;13507;49.030;11.940;2023-03-07T11:08:23;19.83;;;17.23;;
25109;SDS011;13507;49.030;11.940;2023-03-07T11:10:54;13.95;;;12.55;;
25109;SDS011;13507;49.030;11.940;2023-03-07T11:13:21;10.20;;;9.20;;
25109;SDS011;13507;49.030;11.940;2023-03-07T11:15:49;9.40;;;7.93;;
25109;SDS011;13507;49.030;11.940;2023-03-07T11:18:29;7.03;;;6.32;;
25109;SDS011;13507;49.030;11.940;2023-03-07T11:21:02;6.13;;;5.60;;
25109;SDS011;13507;49.030;11.940;2023-03-07T11:23:30;6.03;;;5.43;;
25109;SDS011;13507;49.030;11.940;2023-03-07T11:26:13;6.45;;;5.80;;
25109;SDS011;13507;49.030;11.940;2023-03-07T11:28:42;5.85;;;5.28;;
25109;SDS011;13507;49.030;11.940;2023-03-07T11:31:12;6.05;;;5.07;;
25109;SDS011;13507;49.030;11.940;2023-03-07T11:33:51;14.18;;;12.77;;
25109;SDS011;13507;49.030;11.940;2023-03-07T11:36:30;13.68;;;12.10;;
25109;SDS011;13507;49.030;11.940;2023-03-07T11:39:01;10.65;;;9.65;;
25109;SDS011;13507;49.030;11.940;2023-03-07T11:41:47;8.77;;;7.97;;
25109;SDS011;13507;49.030;11.940;2023-03-07T11:44:31;7.57;;;6.90;;
25109;SDS011;13507;49.030;11.940;2023-03-07T11:50:04;6.00;;;5.40;;
25109;SDS011;13507;49.030;11.940;2023-03-07T11:52:47;5.38;;;4.97;;
25109;SDS011;13507;49.030;11.940;2023-03-07T12:06:08;4.15;;;3.85;;
25109;SDS011;13507;49.030;11.940;2023-03-07T12:17:03;3.50;;;3.30;;
25109;SDS011;13507;49.030;11.940;2023-03-07T12:25:07;3.70;;;3.40;;
25109;SDS011;13507;49.030;11.940;2023-03-07T12:30:46;3.50;;;3.20;;
25109;SDS011;13507;49.030;11.940;2023-03-07T12:33:17;3.22;;;2.92;;
25109;SDS011;13507;49.030;11.940;2023-03-07T12:36:07;2.95;;;2.75;;
25109;SDS011;13507;49.030;11.940;2023-03-07T12:38:46;2.97;;;2.72;;
25109;SDS011;13507;49.030;11.940;2023-03-07T12:41:38;3.10;;;2.90;;
25109;SDS011;13507;49.030;11.940;2023-03-07T12:44:16;2.60;;;2.40;;
25109;SDS011;13507;49.030;11.940;2023-03-07T12:52:59;2.30;;;2.20;;
25109;SDS011;13507;49.030;11.940;2023-03-07T12:57:59;2.10;;;2.00;;
25109;SDS011;13507;49.030;11.940;2023-03-07T13:00:27;2.78;;;2.55;;
25109;SDS011;13507;49.030;11.940;2023-03-07T13:02:58;1.85;;;1.75;;
25109;SDS011;13507;49.030;11.940;2023-03-07T13:05:27;2.15;;;2.05;;
25109;SDS011;13507;49.030;11.940;2023-03-07T13:07:56;2.00;;;1.90;;
25109;SDS011;13507;49.030;11.940;2023-03-07T13:10:23;2.25;;;2.05;;
25109;SDS011;13507;49.030;11.940;2023-03-07T13:12:51;2.03;;;1.83;;
25109;SDS011;13507;49.030;11.940;2023-03-07T13:23:10;1.83;;;1.73;;
25109;SDS011;13507;49.030;11.940;2023-03-07T13:25:54;1.90;;;1.80;;
25109;SDS011;13507;49.030;11.940;2023-03-07T13:28:30;1.75;;;1.65;;
25109;SDS011;13507;49.030;11.940;2023-03-07T13:31:09;1.75;;;1.65;;
25109;SDS011;13507;49.030;11.940;2023-03-07T13:33:39;1.92;;;1.83;;
25109;SDS011;13507;49.030;11.940;2023-03-07T13:45:43;1.42;;;1.33;;
25109;SDS011;13507;49.030;11.940;2023-03-07T13:48:09;1.50;;;1.40;;
25109;SDS011;13507;49.030;11.940;2023-03-07T13:55:43;1.25;;;1.15;;
25109;SDS011;13507;49.030;11.940;2023-03-07T14:00:54;1.25;;;1.20;;
25109;SDS011;13507;49.030;11.940;2023-03-07T14:03:32;1.20;;;1.10;;
25109;SDS011;13507;49.030;11.940;2023-03-07T14:06:07;1.30;;;1.20;;
25109;SDS011;13507;49.030;11.940;2023-03-07T14:08:38;1.27;;;1.20;;
25109;SDS011;13507;49.030;11.940;2023-03-07T14:11:05;1.27;;;1.17;;
25109;SDS011;13507;49.030;11.940;2023-03-07T14:21:51;0.90;;;0.90;;
25109;SDS011;13507;49.030;11.940;2023-03-07T14:24:36;1.10;;;1.10;;
25109;SDS011;13507;49.030;11.940;2023-03-07T14:27:21;1.17;;;1.17;;
25109;SDS011;13507;49.030;11.940;2023-03-07T14:29:49;1.10;;;1.10;;
25109;SDS011;13507;49.030;11.940;2023-03-07T14:32:25;1.30;;;1.20;;
25109;SDS011;13507;49.030;11.940;2023-03-07T14:34:55;1.08;;;1.08;;
25109;SDS011;13507;49.030;11.940;2023-03-07T14:42:23;0.90;;;0.90;;
25109;SDS011;13507;49.030;11.940;2023-03-07T14:45:01;0.90;;;0.90;;
25109;SDS011;13507;49.030;11.940;2023-03-07T14:47:41;0.90;;;0.90;;
25109;SDS011;13507;49.030;11.940;2023-03-07T14:50:30;0.90;;;0.90;;
25109;SDS011;13507;49.030;11.940;2023-03-07T14:53:01;0.90;;;0.90;;
25109;SDS011;13507;49.030;11.940;2023-03-07T14:55:35;0.80;;;0.80;;
25109;SDS011;13507;49.030;11.940;2023-03-07T14:58:05;0.95;;;0.95;;
25109;SDS011;13507;49.030;11.940;2023-03-07T15:00:32;0.80;;;0.80;;
25109;SDS011;13507;49.030;11.940;2023-03-07T15:05:35;1.42;;;1.33;;
25109;SDS011;13507;49.030;11.940;2023-03-07T15:08:22;1.67;;;1.58;;
25109;SDS011;13507;49.030;11.940;2023-03-07T15:13:28;1.50;;;1.40;;
25109;SDS011;13507;49.030;11.940;2023-03-07T15:16:03;1.42;;;1.33;;
25109;SDS011;13507;49.030;11.940;2023-03-07T15:21:06;1.80;;;1.33;;
25109;SDS011;13507;49.030;11.940;2023-03-07T15:23:42;1.00;;;1.00;;
25109;SDS011;13507;49.030;11.940;2023-03-07T15:26:16;0.90;;;0.90;;
25109;SDS011;13507;49.030;11.940;2023-03-07T15:28:43;0.90;;;0.90;;
25109;SDS011;13507;49.030;11.940;2023-03-07T15:31:10;0.90;;;0.90;;
25109;SDS011;13507;49.030;11.940;2023-03-07T15:33:38;0.90;;;0.90;;
25109;SDS011;13507;49.030;11.940;2023-03-07T15:38:39;1.10;;;1.00;;
25109;SDS011;13507;49.030;11.940;2023-03-07T15:41:32;1.00;;;0.90;;
25109;SDS011;13507;49.030;11.940;2023-03-07T15:44:02;0.88;;;0.88;;
25109;SDS011;13507;49.030;11.940;2023-03-07T15:46:31;0.80;;;0.80;;
25109;SDS011;13507;49.030;11.940;2023-03-07T15:49:00;1.00;;;1.00;;
25109;SDS011;13507;49.030;11.940;2023-03-07T15:51:33;1.00;;;1.00;;
25109;SDS011;13507;49.030;11.940;2023-03-07T15:54:03;1.00;;;0.90;;
25109;SDS011;13507;49.030;11.940;2023-03-07T15:56:52;0.80;;;0.80;;
25109;SDS011;13507;49.030;11.940;2023-03-07T15:59:37;0.80;;;0.80;;
25109;SDS011;13507;49.030;11.940;2023-03-07T16:05:24;0.75;;;0.75;;
25109;SDS011;13507;49.030;11.940;2023-03-07T16:07:55;0.90;;;0.90;;
25109;SDS011;13507;49.030;11.940;2023-03-07T16:10:24;0.60;;;0.60;;
25109;SDS011;13507;49.030;11.940;2023-03-07T16:12:54;0.80;;;0.80;;
25109;SDS011;13507;49.030;11.940;2023-03-07T16:15:22;0.80;;;0.80;;
25109;SDS011;13507;49.030;11.940;2023-03-07T16:17:50;0.93;;;0.93;;
25109;SDS011;13507;49.030;11.940;2023-03-07T16:20:19;0.70;;;0.70;;
25109;SDS011;13507;49.030;11.940;2023-03-07T16:22:48;1.00;;;0.90;;
25109;SDS011;13507;49.030;11.940;2023-03-07T16:25:15;0.90;;;0.90;;
25109;SDS011;13507;49.030;11.940;2023-03-07T16:27:43;0.80;;;0.80;;
25109;SDS011;13507;49.030;11.940;2023-03-07T16:30:15;0.73;;;0.73;;
25109;SDS011;13507;49.030;11.940;2023-03-07T16:32:45;0.80;;;0.80;;
25109;SDS011;13507;49.030;11.940;2023-03-07T16:35:16;0.90;;;0.90;;
25109;SDS011;13507;49.030;11.940;2023-03-07T16:37:45;1.00;;;0.90;;
25109;SDS011;13507;49.030;11.940;2023-03-07T16:40:13;1.00;;;0.85;;
25109;SDS011;13507;49.030;11.940;2023-03-07T16:42:42;1.10;;;1.02;;
25109;SDS011;13507;49.030;11.940;2023-03-07T16:45:32;1.10;;;1.10;;
25109;SDS011;13507;49.030;11.940;2023-03-07T16:47:59;0.82;;;0.82;;
25109;SDS011;13507;49.030;11.940;2023-03-07T16:50:28;1.10;;;0.95;;
25109;SDS011;13507;49.030;11.940;2023-03-07T16:52:56;0.85;;;0.85;;
25109;SDS011;13507;49.030;11.940;2023-03-07T16:55:24;0.70;;;0.70;;
25109;SDS011;13507;49.030;11.940;2023-03-07T16:57:53;0.93;;;0.73;;
25109;SDS011;13507;49.030;11.940;2023-03-07T17:00:22;0.77;;;0.77;;
25109;SDS011;13507;49.030;11.940;2023-03-07T17:02:51;0.88;;;0.85;;
25109;SDS011;13507;49.030;11.940;2023-03-07T17:05:21;0.80;;;0.80;;